createdAt,value
2023-03-10T05:00:56.487Z,86.85
2023-03-10T05:01:40.343Z,87.06
2023-03-10T05:02:39.215Z,87.06
2023-03-10T05:03:39.244Z,87.26
2023-03-10T05:04:39.248Z,87.57
2023-03-10T05:05:39.209Z,87.57
2023-03-10T05:06:39.197Z,87.88
2023-03-10T05:07:39.184Z,87.92
2023-03-10T05:08:39.173Z,88.02
2023-03-10T05:09:39.161Z,88.12
2023-03-10T05:10:39.152Z,88.23
2023-03-10T05:11:39.125Z,88.53
2023-03-10T05:12:39.095Z,88.74
2023-03-10T05:13:39.097Z,88.88
2023-03-10T05:14:39.060Z,89.19
2023-03-10T05:15:39.109Z,89.39
2023-03-10T05:16:39.040Z,89.50
2023-03-10T05:17:39.075Z,89.60
2023-03-10T05:18:39.001Z,89.60
2023-03-10T05:19:39.009Z,89.64
2023-03-10T05:20:39.023Z,89.43
2023-03-10T05:21:39.020Z,88.92
2023-03-10T05:22:38.954Z,88.82
2023-03-10T05:23:38.959Z,89.13
2023-03-10T05:24:38.920Z,89.43
2023-03-10T05:25:38.998Z,89.23
2023-03-10T05:26:38.904Z,89.03
2023-03-10T05:27:38.927Z,89.17
2023-03-10T05:28:38.873Z,89.37
2023-03-10T05:29:38.878Z,88.86
2023-03-10T05:30:38.846Z,88.76
2023-03-10T05:31:39.069Z,88.51
2023-03-10T05:32:38.855Z,88.10
2023-03-10T05:33:38.840Z,87.90
2023-03-10T05:34:38.796Z,87.79
2023-03-10T05:35:38.866Z,87.28
2023-03-10T05:36:38.777Z,87.59
2023-03-10T05:37:38.950Z,87.70
2023-03-10T05:38:38.793Z,87.28
2023-03-10T05:39:38.758Z,87.28
2023-03-10T05:40:38.722Z,86.93
2023-03-10T05:41:38.761Z,86.52
2023-03-10T05:42:38.696Z,85.50
2023-03-10T05:43:45.797Z,85.19
2023-03-10T05:44:38.679Z,84.95
2023-03-10T05:45:38.669Z,84.33
2023-03-10T05:46:38.681Z,84.12
2023-03-10T05:47:38.655Z,84.53
2023-03-10T05:48:38.619Z,84.12
2023-03-10T05:49:38.961Z,83.58
2023-03-10T05:50:38.597Z,83.68
2023-03-10T05:51:38.598Z,83.47
2023-03-10T05:52:38.568Z,83.64
2023-03-10T05:53:38.577Z,83.95
2023-03-10T05:54:38.538Z,84.05
2023-03-10T05:55:38.607Z,84.05
2023-03-10T05:56:38.517Z,84.25
2023-03-10T05:57:38.526Z,84.36
2023-03-10T05:58:38.510Z,84.87
2023-03-10T05:59:38.474Z,85.38
2023-03-10T06:00:38.486Z,86.10
2023-03-10T06:01:38.532Z,86.75
2023-03-10T06:02:38.452Z,87.16
2023-03-10T06:03:38.737Z,87.88
2023-03-10T06:04:38.445Z,88.18
2023-03-10T06:05:38.428Z,89.00
2023-03-10T06:06:38.419Z,89.42
2023-03-10T06:07:38.415Z,89.83
2023-03-10T06:08:38.405Z,90.64
2023-03-10T06:09:38.343Z,91.40
2023-03-10T06:10:45.369Z,92.02
2023-03-10T06:11:38.308Z,92.94
2023-03-10T06:12:38.350Z,93.45
2023-03-10T06:13:45.380Z,93.60
2023-03-10T06:14:45.322Z,94.32
2023-03-10T06:15:45.283Z,94.62
2023-03-10T06:16:38.429Z,94.93
2023-03-10T06:17:38.239Z,95.14
2023-03-10T06:18:38.252Z,95.34
2023-03-10T06:19:38.265Z,95.69
2023-03-10T06:20:38.212Z,95.69
2023-03-10T06:21:38.204Z,96.10
2023-03-10T06:22:38.190Z,96.41
2023-03-10T06:23:38.187Z,96.82
2023-03-10T06:24:38.206Z,97.03
2023-03-10T06:25:38.189Z,97.13
2023-03-10T06:26:38.147Z,97.44
2023-03-10T06:27:38.154Z,98.36
2023-03-10T06:28:38.121Z,99.38
2023-03-10T06:29:38.107Z,99.59
2023-03-10T06:30:38.162Z,99.99
2023-03-10T06:31:38.121Z,99.99
2023-03-10T06:32:38.146Z,99.99
2023-03-10T06:33:38.064Z,99.99
2023-03-10T06:34:38.058Z,99.99
2023-03-10T06:35:38.080Z,99.99
2023-03-10T06:36:38.085Z,99.99
2023-03-10T06:37:37.992Z,99.99
2023-03-10T06:38:38.011Z,99.99
2023-03-10T06:39:37.999Z,99.99
2023-03-10T06:40:38.052Z,99.99
2023-03-10T06:41:37.963Z,99.99
2023-03-10T06:42:37.951Z,99.99
2023-03-10T06:43:37.902Z,99.99
2023-03-10T06:44:37.944Z,99.99
2023-03-10T06:45:38.033Z,99.99
2023-03-10T06:46:37.994Z,99.99
2023-03-10T06:47:37.871Z,99.99
2023-03-10T06:48:37.878Z,99.99
2023-03-10T06:49:37.834Z,99.99
2023-03-10T06:50:37.841Z,99.99
2023-03-10T06:51:37.825Z,99.99
2023-03-10T06:52:37.871Z,99.99
2023-03-10T06:53:37.796Z,99.99
2023-03-10T06:54:37.796Z,99.99
2023-03-10T06:55:37.758Z,99.99
2023-03-10T06:56:37.759Z,99.99
2023-03-10T06:57:37.763Z,99.99
2023-03-10T06:58:37.760Z,99.99
2023-03-10T06:59:37.701Z,99.99
2023-03-10T07:00:37.740Z,99.99
2023-03-10T07:01:37.695Z,99.99
2023-03-10T07:02:37.719Z,99.99
2023-03-10T07:03:37.664Z,99.99
2023-03-10T07:04:37.692Z,99.99
2023-03-10T07:05:37.679Z,99.99
2023-03-10T07:06:37.657Z,99.99
2023-03-10T07:07:37.667Z,99.99
2023-03-10T07:08:37.617Z,99.99
2023-03-10T07:09:37.596Z,99.99
2023-03-10T07:10:37.581Z,99.99
2023-03-10T07:11:37.606Z,99.99
2023-03-10T07:12:37.635Z,99.99
2023-03-10T07:13:37.525Z,99.99
2023-03-10T07:14:37.542Z,99.99
2023-03-10T07:15:39.824Z,99.99
2023-03-10T07:16:37.617Z,99.66
2023-03-10T07:17:37.461Z,99.26
2023-03-10T07:18:37.529Z,99.05
2023-03-10T07:19:37.437Z,98.65
2023-03-10T07:20:37.469Z,98.90
2023-03-10T07:21:37.418Z,98.29
2023-03-10T07:22:37.428Z,99.01
2023-03-10T07:23:37.488Z,99.21
2023-03-10T07:24:37.389Z,98.60
2023-03-10T07:25:37.388Z,98.39
2023-03-10T07:26:37.374Z,97.37
2023-03-10T07:27:37.348Z,96.86
2023-03-10T07:28:37.422Z,97.41
2023-03-10T07:29:37.329Z,98.03
2023-03-10T07:30:37.372Z,97.52
2023-03-10T07:31:37.273Z,98.24
2023-03-10T07:32:37.350Z,98.54
2023-03-10T07:33:37.245Z,98.54
2023-03-10T07:34:37.255Z,98.74
2023-03-10T07:35:37.422Z,98.24
2023-03-10T07:36:37.246Z,97.72
2023-03-10T07:37:37.200Z,97.78
2023-03-10T07:38:37.234Z,97.16
2023-03-10T07:39:37.211Z,97.16
2023-03-10T07:40:37.174Z,96.75
2023-03-10T07:41:37.195Z,96.45
2023-03-10T07:42:37.166Z,96.86
2023-03-10T07:43:37.157Z,97.02
2023-03-10T07:44:37.115Z,96.81
2023-03-10T07:45:37.117Z,96.61
2023-03-10T07:46:37.211Z,96.20
2023-03-10T07:47:37.105Z,95.95
2023-03-10T07:48:37.084Z,95.75
2023-03-10T07:49:37.040Z,95.85
2023-03-10T07:50:37.213Z,95.34
2023-03-10T07:51:37.040Z,94.87
2023-03-10T07:52:37.011Z,94.87
2023-03-10T07:53:36.987Z,94.87
2023-03-10T07:54:36.997Z,94.36
2023-03-10T07:55:37.000Z,94.97
2023-03-10T07:56:37.075Z,96.30
2023-03-10T07:57:36.962Z,95.18
2023-03-10T07:58:36.970Z,95.48
2023-03-10T07:59:36.924Z,95.34
2023-03-10T08:00:37.004Z,95.44
2023-03-10T08:01:37.072Z,94.73
2023-03-10T08:02:36.911Z,94.82
2023-03-10T08:03:37.095Z,94.82
2023-03-10T08:04:36.983Z,94.27
2023-03-10T08:05:36.860Z,93.15
2023-03-10T08:06:36.900Z,92.94
2023-03-10T08:07:36.819Z,92.90
2023-03-10T08:08:36.988Z,93.10
2023-03-10T08:09:36.981Z,92.96
2023-03-10T08:10:36.816Z,92.14
2023-03-10T08:11:36.920Z,91.22
2023-03-10T08:12:36.825Z,90.41
2023-03-10T08:13:36.829Z,90.41
2023-03-10T08:14:36.772Z,90.61
2023-03-10T08:15:36.817Z,90.55
2023-03-10T08:16:36.762Z,89.53
2023-03-10T08:17:43.693Z,90.08
2023-03-10T08:18:43.708Z,91.11
2023-03-10T08:19:43.669Z,91.27
2023-03-10T08:20:44.211Z,91.37
2023-03-10T08:21:44.174Z,90.96
2023-03-10T08:22:43.844Z,90.86
2023-03-10T08:23:43.993Z,90.75
2023-03-10T08:24:36.646Z,89.94
2023-03-10T08:25:36.698Z,89.84
2023-03-10T08:26:36.624Z,89.32
2023-03-10T08:27:36.639Z,88.24
2023-03-10T08:28:36.549Z,87.43
2023-03-10T08:29:36.569Z,86.91
2023-03-10T08:30:36.724Z,86.61
2023-03-10T08:31:36.553Z,86.30
2023-03-10T08:32:36.625Z,86.20
2023-03-10T08:33:36.504Z,85.89
2023-03-10T08:34:36.772Z,85.89
2023-03-10T08:35:36.485Z,86.51
2023-03-10T08:36:36.561Z,87.02
2023-03-10T08:37:36.408Z,85.59
2023-03-10T08:38:36.631Z,85.08
2023-03-10T08:39:36.424Z,85.59
2023-03-10T08:40:36.399Z,82.77
2023-03-10T08:41:37.369Z,82.36
2023-03-10T08:42:36.409Z,82.67
2023-03-10T08:43:36.385Z,82.15
2023-03-10T08:44:36.521Z,82.67
2023-03-10T08:45:36.338Z,81.95
2023-03-10T08:46:36.399Z,81.91
2023-03-10T08:47:36.331Z,80.79
2023-03-10T08:48:36.350Z,80.75
2023-03-10T08:49:36.245Z,80.24
2023-03-10T08:50:36.292Z,80.14
2023-03-10T08:51:36.234Z,79.93
2023-03-10T08:52:36.251Z,79.93
2023-03-10T08:53:36.230Z,80.34
2023-03-10T08:54:36.339Z,80.14
2023-03-10T08:55:36.212Z,80.85
2023-03-10T08:56:36.177Z,80.44
2023-03-10T08:57:36.202Z,80.44
2023-03-10T08:58:36.178Z,80.44
2023-03-10T08:59:36.135Z,80.14
2023-03-10T09:00:36.339Z,80.75
2023-03-10T09:01:36.131Z,81.26
2023-03-10T09:02:36.114Z,81.05
2023-03-10T09:03:36.169Z,81.37
2023-03-10T09:04:36.109Z,79.12
2023-03-10T09:05:36.048Z,78.91
2023-03-10T09:06:36.120Z,79.22
2023-03-10T09:07:36.120Z,79.73
2023-03-10T09:08:36.106Z,79.28
2023-03-10T09:09:36.028Z,79.18
2023-03-10T09:10:36.008Z,78.67
2023-03-10T09:11:38.794Z,79.28
2023-03-10T09:12:38.992Z,78.61
2023-03-10T09:13:35.951Z,77.89
2023-03-10T09:14:35.957Z,78.20
2023-03-10T09:15:35.983Z,78.41
2023-03-10T09:16:35.974Z,78.16
2023-03-10T09:17:35.883Z,78.16
2023-03-10T09:18:35.920Z,77.86
2023-03-10T09:19:35.855Z,77.25
2023-03-10T09:20:35.904Z,77.41
2023-03-10T09:21:35.924Z,76.90
2023-03-10T09:22:35.841Z,76.25
2023-03-10T09:23:35.813Z,74.76
2023-03-10T09:24:35.827Z,73.54
2023-03-10T09:25:35.839Z,73.10
2023-03-10T09:26:35.786Z,73.02
2023-03-10T09:27:35.758Z,71.87
2023-03-10T09:28:35.755Z,71.40
2023-03-10T09:29:43.085Z,71.50
2023-03-10T09:30:36.834Z,72.14
2023-03-10T09:31:35.753Z,72.96
2023-03-10T09:32:35.774Z,72.58
2023-03-10T09:33:35.661Z,72.99
2023-03-10T09:34:35.665Z,73.30
2023-03-10T09:35:39.368Z,73.19
2023-03-10T09:36:36.784Z,72.69
2023-03-10T09:37:35.631Z,72.58
2023-03-10T09:38:35.666Z,72.69
2023-03-10T09:39:35.598Z,72.58
2023-03-10T09:40:35.692Z,72.69
2023-03-10T09:41:38.092Z,72.82
2023-03-10T09:42:38.217Z,72.69
2023-03-10T09:43:35.540Z,72.89
2023-03-10T09:44:35.549Z,72.78
2023-03-10T09:45:35.627Z,72.62
2023-03-10T09:46:35.550Z,72.62
2023-03-10T09:47:35.481Z,72.96
2023-03-10T09:48:35.500Z,73.71
2023-03-10T09:49:35.451Z,75.03
2023-03-10T09:50:35.469Z,75.44
2023-03-10T09:51:35.500Z,75.98
2023-03-10T09:52:35.414Z,76.70
2023-03-10T09:53:35.448Z,77.21
2023-03-10T09:54:35.391Z,78.02
2023-03-10T09:55:36.627Z,78.57
2023-03-10T09:56:35.394Z,80.91
2023-03-10T09:57:35.477Z,82.28
2023-03-10T09:58:35.338Z,82.83
2023-03-10T09:59:35.345Z,84.77
2023-03-10T10:00:35.333Z,85.49
2023-03-10T10:01:35.350Z,85.75
2023-03-10T10:02:35.286Z,85.96
2023-03-10T10:03:49.942Z,85.55
2023-03-10T10:04:36.374Z,85.49
2023-03-10T10:05:35.293Z,86.00
2023-03-10T10:06:35.239Z,86.10
2023-03-10T10:07:35.258Z,85.53
2023-03-10T10:08:35.219Z,85.02
2023-03-10T10:09:35.255Z,86.29
2023-03-10T10:10:35.195Z,86.12
2023-03-10T10:11:35.214Z,87.35
2023-03-10T10:12:35.165Z,87.55
2023-03-10T10:13:35.170Z,87.45
2023-03-10T10:14:38.472Z,86.38
2023-03-10T10:15:36.185Z,85.12
2023-03-10T10:16:35.134Z,84.81
2023-03-10T10:17:39.160Z,83.95
2023-03-10T10:18:36.140Z,83.04
2023-03-10T10:19:36.982Z,82.01
2023-03-10T10:20:35.059Z,82.69
2023-03-10T10:21:42.298Z,83.16
2023-03-10T10:22:36.013Z,80.00
2023-03-10T10:23:42.042Z,79.55
2023-03-10T10:24:42.021Z,80.27
2023-03-10T10:25:42.523Z,79.32
2023-03-10T10:26:43.083Z,78.50
2023-03-10T10:27:41.987Z,77.98
2023-03-10T10:28:34.926Z,78.09
2023-03-10T10:29:34.947Z,77.78
2023-03-10T10:30:34.979Z,76.25
2023-03-10T10:31:36.108Z,75.54
2023-03-10T10:32:35.031Z,76.15
2023-03-10T10:33:34.886Z,76.39
2023-03-10T10:34:34.861Z,76.90
2023-03-10T10:35:34.883Z,77.51
2023-03-10T10:36:34.813Z,78.12
2023-03-10T10:37:37.310Z,77.72
2023-03-10T10:38:34.872Z,77.51
2023-03-10T10:39:34.809Z,77.21
2023-03-10T10:40:34.769Z,76.97
2023-03-10T10:41:34.806Z,76.25
2023-03-10T10:42:34.745Z,75.81
2023-03-10T10:43:35.715Z,75.30
2023-03-10T10:44:34.757Z,75.30
2023-03-10T10:45:34.721Z,74.28
2023-03-10T10:46:34.839Z,74.62
2023-03-10T10:47:34.720Z,75.23
2023-03-10T10:48:34.668Z,74.21
2023-03-10T10:49:34.680Z,73.64
2023-03-10T10:50:34.683Z,72.99
2023-03-10T10:51:34.654Z,73.81
2023-03-10T10:52:34.606Z,73.30
2023-03-10T10:53:34.648Z,73.40
2023-03-10T10:54:34.577Z,74.01
2023-03-10T10:55:34.672Z,74.52
2023-03-10T10:56:34.564Z,73.10
2023-03-10T10:57:34.575Z,72.89
2023-03-10T10:58:34.564Z,72.08
2023-03-10T10:59:34.526Z,72.96
2023-03-10T11:00:34.579Z,72.28
2023-03-10T11:01:34.529Z,72.17
2023-03-10T11:02:34.593Z,72.08
2023-03-10T11:03:34.489Z,72.08
2023-03-10T11:04:34.454Z,72.69
2023-03-10T11:05:34.481Z,71.67
2023-03-10T11:06:34.500Z,71.56
2023-03-10T11:07:34.446Z,72.38
2023-03-10T11:08:34.405Z,72.08
2023-03-10T11:09:34.394Z,72.17
2023-03-10T11:10:34.368Z,71.80
2023-03-10T11:11:34.395Z,71.91
2023-03-10T11:12:34.470Z,72.58
2023-03-10T11:13:34.372Z,72.08
2023-03-10T11:14:34.333Z,71.97
2023-03-10T11:15:34.363Z,71.97
2023-03-10T11:16:34.303Z,71.94
2023-03-10T11:17:34.354Z,71.50
2023-03-10T11:18:34.285Z,71.26
2023-03-10T11:19:34.284Z,71.36
2023-03-10T11:20:34.254Z,71.12
2023-03-10T11:21:34.302Z,71.73
2023-03-10T11:22:34.275Z,72.14
2023-03-10T11:23:34.289Z,70.41
2023-03-10T11:24:34.202Z,70.68
2023-03-10T11:25:34.210Z,70.89
2023-03-10T11:26:34.172Z,71.53
2023-03-10T11:27:34.211Z,72.38
2023-03-10T11:28:34.139Z,73.81
2023-03-10T11:29:34.210Z,73.03
2023-03-10T11:30:34.130Z,73.60
2023-03-10T11:31:34.157Z,73.71
2023-03-10T11:32:34.248Z,73.84
2023-03-10T11:33:34.111Z,74.55
2023-03-10T11:34:34.061Z,75.07
2023-03-10T11:35:34.104Z,74.55
2023-03-10T11:36:36.510Z,73.94
2023-03-10T11:37:34.096Z,74.25
2023-03-10T11:38:34.014Z,75.37
2023-03-10T11:39:34.084Z,75.51
2023-03-10T11:40:33.971Z,77.14
2023-03-10T11:41:33.997Z,77.34
2023-03-10T11:42:34.290Z,76.19
2023-03-10T11:43:33.976Z,76.50
2023-03-10T11:44:33.929Z,76.35
2023-03-10T11:45:33.955Z,75.54
2023-03-10T11:46:33.924Z,75.44
2023-03-10T11:47:33.979Z,74.11
2023-03-10T11:48:33.860Z,73.06
2023-03-10T11:49:33.871Z,73.16
2023-03-10T11:50:33.930Z,73.06
2023-03-10T11:51:33.834Z,73.06
2023-03-10T11:52:33.888Z,72.14
2023-03-10T11:53:33.812Z,72.55
2023-03-10T11:54:33.778Z,71.94
2023-03-10T11:55:33.792Z,72.17
2023-03-10T11:56:40.805Z,72.69
2023-03-10T11:57:41.863Z,73.19
2023-03-10T11:58:40.767Z,72.69
2023-03-10T11:59:41.250Z,72.89
2023-03-10T12:00:33.756Z,73.10
2023-03-10T12:01:33.708Z,73.10
2023-03-10T12:02:33.677Z,74.42
2023-03-10T12:03:33.712Z,74.66
2023-03-10T12:04:33.685Z,74.96
2023-03-10T12:05:33.719Z,74.35
2023-03-10T12:06:33.728Z,74.66
2023-03-10T12:07:33.636Z,75.07
2023-03-10T12:08:33.620Z,74.35
2023-03-10T12:09:33.641Z,73.74
2023-03-10T12:10:33.645Z,74.25
2023-03-10T12:11:33.609Z,73.94
2023-03-10T12:12:33.556Z,74.21
2023-03-10T12:13:33.566Z,74.01
2023-03-10T12:14:33.510Z,73.10
2023-03-10T12:15:33.563Z,72.55
2023-03-10T12:16:33.598Z,72.65
2023-03-10T12:17:33.511Z,72.96
2023-03-10T12:18:33.477Z,72.55
2023-03-10T12:19:33.500Z,72.41
2023-03-10T12:20:33.470Z,72.48
2023-03-10T12:21:33.479Z,71.97
2023-03-10T12:22:33.407Z,72.14
2023-03-10T12:23:33.428Z,72.65
2023-03-10T12:24:33.409Z,72.55
2023-03-10T12:25:33.457Z,71.73
2023-03-10T12:26:33.356Z,71.97
2023-03-10T12:27:33.395Z,72.28
2023-03-10T12:28:33.344Z,72.69
2023-03-10T12:29:33.343Z,72.38
2023-03-10T12:30:33.317Z,72.58
2023-03-10T12:31:33.416Z,71.73
2023-03-10T12:32:33.368Z,72.45
2023-03-10T12:33:33.287Z,71.12
2023-03-10T12:34:33.262Z,71.33
2023-03-10T12:35:33.266Z,71.56
2023-03-10T12:36:33.264Z,71.77
2023-03-10T12:37:33.303Z,72.17
2023-03-10T12:38:33.243Z,73.10
2023-03-10T12:39:33.212Z,72.41
2023-03-10T12:40:33.169Z,72.31
2023-03-10T12:41:33.185Z,73.16
2023-03-10T12:42:33.154Z,73.06
2023-03-10T12:43:33.202Z,72.48
2023-03-10T12:44:33.120Z,72.99
2023-03-10T12:45:33.161Z,72.58
2023-03-10T12:46:33.163Z,72.89
2023-03-10T12:47:33.123Z,73.30
2023-03-10T12:48:33.090Z,72.99
2023-03-10T12:49:33.107Z,72.72
2023-03-10T12:50:33.112Z,72.72
2023-03-10T12:51:33.052Z,73.03
2023-03-10T12:52:33.013Z,72.79
2023-03-10T12:53:33.042Z,72.58
2023-03-10T12:54:33.001Z,72.17
2023-03-10T12:55:32.999Z,71.77
2023-03-10T12:56:33.041Z,71.46
2023-03-10T12:57:32.996Z,71.46
2023-03-10T12:58:32.947Z,72.38
2023-03-10T12:59:32.936Z,72.17
2023-03-10T13:00:33.030Z,71.91
2023-03-10T13:01:33.956Z,71.60
2023-03-10T13:02:33.896Z,71.39
2023-03-10T13:03:32.929Z,71.19
2023-03-10T13:04:32.851Z,71.29
2023-03-10T13:05:32.869Z,71.70
2023-03-10T13:06:32.889Z,72.00
2023-03-10T13:07:32.836Z,71.73
2023-03-10T13:08:32.808Z,71.12
2023-03-10T13:09:32.800Z,71.91
2023-03-10T13:10:32.861Z,71.50
2023-03-10T13:11:32.817Z,71.29
2023-03-10T13:12:32.747Z,71.80
2023-03-10T13:13:32.750Z,71.84
2023-03-10T13:14:32.742Z,72.14
2023-03-10T13:15:32.729Z,72.31
2023-03-10T13:16:32.846Z,72.00
2023-03-10T13:17:32.747Z,71.91
2023-03-10T13:18:32.667Z,71.80
2023-03-10T13:19:32.694Z,71.70
2023-03-10T13:20:32.639Z,72.72
2023-03-10T13:21:39.736Z,72.79
2023-03-10T13:22:39.631Z,73.10
2023-03-10T13:23:39.656Z,74.52
2023-03-10T13:24:39.607Z,74.83
2023-03-10T13:25:39.682Z,75.16
2023-03-10T13:26:32.638Z,75.78
2023-03-10T13:27:32.565Z,76.29
2023-03-10T13:28:32.553Z,76.43
2023-03-10T13:29:32.592Z,77.55
2023-03-10T13:30:32.602Z,77.25
2023-03-10T13:31:32.617Z,76.63
2023-03-10T13:32:32.534Z,77.28
2023-03-10T13:33:40.210Z,76.87
2023-03-10T13:34:33.460Z,76.56
2023-03-10T13:35:32.507Z,77.34
2023-03-10T13:36:32.596Z,77.21
2023-03-10T13:37:32.433Z,76.39
2023-03-10T13:38:32.468Z,76.59
2023-03-10T13:39:32.424Z,74.45
2023-03-10T13:40:32.519Z,74.86
2023-03-10T13:41:32.352Z,75.78
2023-03-10T13:42:43.315Z,75.78
2023-03-10T13:43:33.345Z,73.88
2023-03-10T13:44:32.337Z,75.04
2023-03-10T13:45:32.334Z,76.16
2023-03-10T13:46:32.416Z,76.16
2023-03-10T13:47:32.270Z,76.60
2023-03-10T13:48:32.343Z,77.22
2023-03-10T13:49:32.250Z,77.38
2023-03-10T13:50:32.350Z,77.18
2023-03-10T13:51:32.636Z,75.71
2023-03-10T13:52:32.272Z,76.32
2023-03-10T13:53:32.189Z,75.82
2023-03-10T13:54:32.232Z,75.00
2023-03-10T13:55:32.358Z,75.61
2023-03-10T13:56:32.170Z,75.51
2023-03-10T13:57:32.148Z,73.84
2023-03-10T13:58:32.179Z,73.94
2023-03-10T13:59:32.106Z,74.15
2023-03-10T14:00:32.147Z,73.74
2023-03-10T14:01:32.185Z,73.67
2023-03-10T14:02:32.105Z,73.98
2023-03-10T14:03:32.191Z,74.38
2023-03-10T14:04:32.061Z,74.73
2023-03-10T14:05:32.039Z,74.08
2023-03-10T14:06:32.071Z,74.83
2023-03-10T14:07:33.696Z,75.44
2023-03-10T14:08:32.033Z,76.56
2023-03-10T14:09:31.978Z,76.97
2023-03-10T14:10:31.987Z,76.81
2023-03-10T14:11:31.965Z,77.11
2023-03-10T14:12:32.026Z,77.42
2023-03-10T14:13:33.426Z,78.13
2023-03-10T14:14:31.931Z,78.78
2023-03-10T14:15:31.912Z,80.01
2023-03-10T14:16:31.979Z,79.70
2023-03-10T14:17:31.870Z,80.01
2023-03-10T14:18:31.874Z,79.39
2023-03-10T14:19:31.958Z,79.05
2023-03-10T14:20:31.886Z,78.85
2023-03-10T14:21:31.810Z,78.34
2023-03-10T14:22:31.816Z,78.44
2023-03-10T14:23:31.784Z,78.75
2023-03-10T14:24:31.827Z,78.64
2023-03-10T14:25:31.879Z,79.16
2023-03-10T14:26:31.767Z,78.85
2023-03-10T14:27:31.726Z,79.05
2023-03-10T14:28:31.737Z,79.36
2023-03-10T14:29:31.728Z,79.46
2023-03-10T14:30:31.818Z,80.28
2023-03-10T14:31:31.699Z,79.97
2023-03-10T14:32:31.790Z,80.07
2023-03-10T14:33:31.647Z,80.18
2023-03-10T14:34:31.670Z,79.97
2023-03-10T14:35:31.667Z,80.89
2023-03-10T14:36:31.646Z,80.83
2023-03-10T14:37:31.598Z,81.65
2023-03-10T14:38:31.610Z,80.62
2023-03-10T14:39:31.577Z,80.62
2023-03-10T14:40:31.684Z,80.56
2023-03-10T14:41:31.536Z,80.56
2023-03-10T14:42:31.551Z,80.66
2023-03-10T14:43:31.506Z,81.01
2023-03-10T14:44:31.568Z,80.90
2023-03-10T14:45:41.488Z,81.45
2023-03-10T14:46:38.672Z,81.76
2023-03-10T14:47:38.814Z,82.27
2023-03-10T14:48:38.487Z,82.07
2023-03-10T14:49:38.476Z,82.57
2023-03-10T14:50:31.481Z,82.68
2023-03-10T14:51:36.092Z,82.78
2023-03-10T14:52:32.455Z,82.37
2023-03-10T14:53:31.390Z,82.92
2023-03-10T14:54:31.387Z,82.89
2023-03-10T14:55:31.404Z,83.29
2023-03-10T14:56:31.364Z,83.29
2023-03-10T14:57:31.365Z,82.78
2023-03-10T14:58:31.344Z,82.98
2023-03-10T14:59:31.302Z,82.78
2023-03-10T15:00:31.378Z,82.78
2023-03-10T15:01:31.384Z,81.96
2023-03-10T15:02:31.316Z,81.96
2023-03-10T15:03:31.254Z,82.68
2023-03-10T15:04:31.285Z,82.27
2023-03-10T15:05:46.883Z,82.37
2023-03-10T15:06:32.275Z,82.27
2023-03-10T15:07:31.252Z,82.17
2023-03-10T15:08:31.224Z,82.27
2023-03-10T15:09:31.232Z,82.48
2023-03-10T15:10:31.213Z,82.17
2023-03-10T15:11:37.440Z,82.37
2023-03-10T15:12:32.220Z,82.27
2023-03-10T15:13:31.136Z,82.17
2023-03-10T15:14:31.142Z,82.48
2023-03-10T15:15:31.179Z,83.29
2023-03-10T15:16:31.116Z,83.84
2023-03-10T15:17:31.084Z,84.05
2023-03-10T15:18:31.266Z,83.33
2023-03-10T15:19:31.117Z,84.36
2023-03-10T15:20:31.069Z,82.62
2023-03-10T15:21:31.038Z,81.79
2023-03-10T15:22:31.035Z,81.59
2023-03-10T15:23:31.011Z,81.49
2023-03-10T15:24:31.072Z,81.79
2023-03-10T15:25:30.990Z,80.98
2023-03-10T15:26:31.000Z,80.91
2023-03-10T15:27:30.979Z,81.94
2023-03-10T15:28:30.972Z,82.24
2023-03-10T15:29:30.932Z,81.32
2023-03-10T15:30:30.963Z,80.51
2023-03-10T15:31:30.966Z,80.23
2023-03-10T15:32:30.968Z,80.03
2023-03-10T15:33:30.882Z,78.49
2023-03-10T15:34:30.893Z,78.59
2023-03-10T15:35:31.025Z,79.21
2023-03-10T15:36:30.887Z,79.72
2023-03-10T15:37:30.841Z,79.82
2023-03-10T15:38:30.866Z,79.82
2023-03-10T15:39:32.651Z,79.82
2023-03-10T15:40:30.828Z,80.03
2023-03-10T15:41:30.819Z,79.82
2023-03-10T15:42:30.800Z,79.00
2023-03-10T15:43:30.761Z,78.49
2023-03-10T15:44:30.762Z,78.08
2023-03-10T15:45:30.800Z,78.59
2023-03-10T15:46:30.874Z,78.28
2023-03-10T15:47:30.696Z,77.98
2023-03-10T15:48:30.728Z,77.40
2023-03-10T15:49:30.712Z,76.48
2023-03-10T15:50:30.700Z,77.50
2023-03-10T15:51:30.709Z,76.78
2023-03-10T15:52:30.672Z,75.69
2023-03-10T15:53:30.662Z,77.03
2023-03-10T15:54:30.638Z,77.44
2023-03-10T15:55:30.595Z,78.50
2023-03-10T15:56:30.641Z,78.60
2023-03-10T15:57:30.642Z,78.29
2023-03-10T15:58:30.584Z,79.11
2023-03-10T15:59:30.553Z,79.22
2023-03-10T16:00:30.565Z,79.93
2023-03-10T16:01:30.570Z,78.91
2023-03-10T16:02:30.536Z,78.09
2023-03-10T16:03:30.576Z,78.29
2023-03-10T16:04:30.523Z,77.88
2023-03-10T16:05:30.481Z,78.39
2023-03-10T16:06:30.589Z,79.08
2023-03-10T16:07:30.491Z,78.97
2023-03-10T16:08:30.482Z,78.36
2023-03-10T16:09:30.463Z,78.25
2023-03-10T16:10:30.487Z,77.61
2023-03-10T16:11:30.398Z,78.63
2023-03-10T16:12:30.392Z,77.84
2023-03-10T16:13:30.372Z,76.31
2023-03-10T16:14:30.379Z,76.51
2023-03-10T16:15:30.349Z,76.17
2023-03-10T16:16:30.470Z,76.48
2023-03-10T16:17:30.299Z,76.48
2023-03-10T16:18:30.331Z,76.03
2023-03-10T16:19:30.286Z,75.73
2023-03-10T16:20:30.325Z,75.21
2023-03-10T16:21:30.266Z,74.60
2023-03-10T16:22:38.065Z,73.27
2023-03-10T16:23:38.128Z,74.02
2023-03-10T16:24:37.251Z,73.19
2023-03-10T16:25:37.280Z,72.89
2023-03-10T16:26:37.219Z,71.86
2023-03-10T16:27:38.190Z,71.56
2023-03-10T16:28:37.196Z,71.56
2023-03-10T16:29:37.165Z,71.97
2023-03-10T16:30:30.198Z,70.22
2023-03-10T16:31:30.262Z,69.30
2023-03-10T16:32:30.172Z,69.78
2023-03-10T16:33:30.094Z,69.98
2023-03-10T16:34:30.118Z,70.29
2023-03-10T16:35:30.274Z,70.43
2023-03-10T16:36:30.080Z,70.02
2023-03-10T16:37:30.086Z,69.61
2023-03-10T16:38:30.062Z,69.23
2023-03-10T16:39:30.022Z,69.95
2023-03-10T16:40:30.033Z,70.87
2023-03-10T16:41:30.096Z,71.08
2023-03-10T16:42:30.062Z,71.42
2023-03-10T16:43:29.970Z,71.11
2023-03-10T16:44:29.994Z,71.21
2023-03-10T16:45:30.005Z,70.70
2023-03-10T16:46:29.971Z,70.29
2023-03-10T16:47:30.089Z,70.39
2023-03-10T16:48:29.988Z,70.90
2023-03-10T16:49:29.887Z,70.50
2023-03-10T16:50:29.977Z,70.36
2023-03-10T16:51:29.859Z,70.50
2023-03-10T16:52:29.879Z,70.05
2023-03-10T16:53:29.835Z,70.08
2023-03-10T16:54:29.862Z,70.39
2023-03-10T16:55:29.824Z,70.18
2023-03-10T16:56:29.881Z,70.84
2023-03-10T16:57:29.788Z,70.94
2023-03-10T16:58:29.802Z,70.36
2023-03-10T16:59:29.756Z,70.76
2023-03-10T17:00:29.768Z,71.62
2023-03-10T17:01:29.781Z,72.03
2023-03-10T17:02:29.775Z,72.06
2023-03-10T17:03:29.761Z,71.96
2023-03-10T17:04:29.705Z,72.17
2023-03-10T17:05:29.741Z,72.17
2023-03-10T17:06:29.699Z,72.41
2023-03-10T17:07:29.708Z,72.51
2023-03-10T17:08:29.672Z,73.02
2023-03-10T17:09:29.626Z,73.23
2023-03-10T17:10:29.689Z,72.81
2023-03-10T17:11:29.652Z,73.16
2023-03-10T17:12:29.672Z,73.36
2023-03-10T17:13:29.569Z,73.98
2023-03-10T17:14:29.723Z,74.50
2023-03-10T17:15:29.551Z,74.84
2023-03-10T17:16:29.600Z,75.35
2023-03-10T17:17:29.577Z,75.77
2023-03-10T17:18:29.598Z,75.97
2023-03-10T17:19:29.492Z,76.07
2023-03-10T17:20:29.575Z,76.28
2023-03-10T17:21:29.475Z,76.79
2023-03-10T17:22:29.484Z,76.49
2023-03-10T17:23:29.444Z,76.70
2023-03-10T17:24:29.566Z,76.28
2023-03-10T17:25:29.423Z,76.39
2023-03-10T17:26:29.426Z,75.67
2023-03-10T17:27:29.395Z,75.87
2023-03-10T17:28:29.403Z,76.07
2023-03-10T17:29:29.374Z,75.46
2023-03-10T17:30:29.407Z,74.84
2023-03-10T17:31:29.413Z,74.33
2023-03-10T17:32:29.377Z,74.02
2023-03-10T17:33:29.329Z,74.02
2023-03-10T17:34:29.312Z,74.02
2023-03-10T17:35:29.391Z,74.26
2023-03-10T17:36:29.286Z,74.36
2023-03-10T17:37:29.287Z,74.57
2023-03-10T17:38:29.309Z,73.64
2023-03-10T17:39:29.264Z,73.33
2023-03-10T17:40:29.228Z,72.71
2023-03-10T17:41:29.257Z,72.61
2023-03-10T17:42:29.227Z,72.92
2023-03-10T17:43:33.715Z,72.20
2023-03-10T17:44:30.220Z,71.89
2023-03-10T17:45:29.219Z,71.78
2023-03-10T17:46:29.250Z,71.27
2023-03-10T17:47:29.176Z,71.69
2023-03-10T17:48:29.123Z,72.03
2023-03-10T17:49:29.144Z,71.82
2023-03-10T17:50:29.164Z,72.23
2023-03-10T17:51:29.133Z,72.64
2023-03-10T17:52:29.154Z,73.78